sensor_id;sensor_type;location;lat;lon;timestamp;temperature;humidity
16968;DHT22;64862;54.398;10.126;2023-06-22T01:55:24;17.30;68.10
16968;DHT22;64862;54.398;10.126;2023-06-22T02:05:31;17.20;68.90
16968;DHT22;64862;54.398;10.126;2023-06-22T02:15:35;17.20;68.70
16968;DHT22;64862;54.398;10.126;2023-06-22T02:25:38;17.10;69.10
16968;DHT22;64862;54.398;10.126;2023-06-22T02:35:42;17.30;68.90
16968;DHT22;64862;54.398;10.126;2023-06-22T02:45:48;17.20;68.80
16968;DHT22;64862;54.398;10.126;2023-06-22T02:55:52;17.20;68.60
16968;DHT22;64862;54.398;10.126;2023-06-22T03:05:54;17.20;68.60
16968;DHT22;64862;54.398;10.126;2023-06-22T03:16:00;17.20;68.60
16968;DHT22;64862;54.398;10.126;2023-06-22T03:26:02;17.10;68.70
16968;DHT22;64862;54.398;10.126;2023-06-22T03:36:06;17.10;69.20
16968;DHT22;64862;54.398;10.126;2023-06-22T03:46:08;17.10;69.20
16968;DHT22;64862;54.398;10.126;2023-06-22T03:56:12;17.00;70.20
16968;DHT22;64862;54.398;10.126;2023-06-22T04:06:20;17.10;70.50
16968;DHT22;64862;54.398;10.126;2023-06-22T04:16:24;17.20;70.70
16968;DHT22;64862;54.398;10.126;2023-06-22T04:26:26;17.40;71.20
16968;DHT22;64862;54.398;10.126;2023-06-22T04:36:30;17.60;70.90
16968;DHT22;64862;54.398;10.126;2023-06-22T04:46:38;17.70;70.80
16968;DHT22;64862;54.398;10.126;2023-06-22T04:56:43;17.80;71.50
16968;DHT22;64862;54.398;10.126;2023-06-22T05:06:47;18.00;71.20
16968;DHT22;64862;54.398;10.126;2023-06-22T05:16:50;18.10;71.50
16968;DHT22;64862;54.398;10.126;2023-06-22T05:26:53;18.20;71.50
16968;DHT22;64862;54.398;10.126;2023-06-22T05:36:57;18.20;71.60
16968;DHT22;64862;54.398;10.126;2023-06-22T05:47:00;18.20;71.40
16968;DHT22;64862;54.398;10.126;2023-06-22T05:57:05;18.40;70.40
16968;DHT22;64862;54.398;10.126;2023-06-22T06:07:07;18.50;69.70
16968;DHT22;64862;54.398;10.126;2023-06-22T06:17:11;18.70;70.10
16968;DHT22;64862;54.398;10.126;2023-06-22T06:27:13;18.90;69.90
16968;DHT22;64862;54.398;10.126;2023-06-22T06:37:17;18.90;66.70
16968;DHT22;64862;54.398;10.126;2023-06-22T06:47:19;19.20;65.90
16968;DHT22;64862;54.398;10.126;2023-06-22T06:57:24;19.30;64.10
16968;DHT22;64862;54.398;10.126;2023-06-22T07:07:29;19.40;63.90
16968;DHT22;64862;54.398;10.126;2023-06-22T07:17:34;19.50;63.80
16968;DHT22;64862;54.398;10.126;2023-06-22T07:27:38;19.70;62.20
16968;DHT22;64862;54.398;10.126;2023-06-22T07:37:44;19.70;60.70
16968;DHT22;64862;54.398;10.126;2023-06-22T07:47:47;19.80;60.20
16968;DHT22;64862;54.398;10.126;2023-06-22T07:57:50;19.90;59.60
16968;DHT22;64862;54.398;10.126;2023-06-22T08:07:53;20.10;59.80
16968;DHT22;64862;54.398;10.126;2023-06-22T08:17:57;20.20;59.20
16968;DHT22;64862;54.398;10.126;2023-06-22T08:27:59;20.30;62.80
16968;DHT22;64862;54.398;10.126;2023-06-22T08:38:03;20.30;61.50
16968;DHT22;64862;54.398;10.126;2023-06-22T08:48:05;20.40;61.60
16968;DHT22;64862;54.398;10.126;2023-06-22T08:58:08;20.40;61.60
16968;DHT22;64862;54.398;10.126;2023-06-22T09:08:11;20.50;61.10
16968;DHT22;64862;54.398;10.126;2023-06-22T09:18:15;20.50;61.10
16968;DHT22;64862;54.398;10.126;2023-06-22T09:28:17;20.60;60.50
16968;DHT22;64862;54.398;10.126;2023-06-22T09:38:23;20.60;60.40
16968;DHT22;64862;54.398;10.126;2023-06-22T09:48:25;20.70;60.00
16968;DHT22;64862;54.398;10.126;2023-06-22T09:58:29;20.80;58.70
16968;DHT22;64862;54.398;10.126;2023-06-22T10:08:31;21.10;58.80
16968;DHT22;64862;54.398;10.126;2023-06-22T10:18:34;21.10;57.80
16968;DHT22;64862;54.398;10.126;2023-06-22T10:28:36;21.20;58.00
16968;DHT22;64862;54.398;10.126;2023-06-22T10:38:40;21.20;58.50
16968;DHT22;64862;54.398;10.126;2023-06-22T10:48:42;21.30;57.40
16968;DHT22;64862;54.398;10.126;2023-06-22T10:58:46;21.30;57.90
16968;DHT22;64862;54.398;10.126;2023-06-22T11:08:48;21.40;56.80
16968;DHT22;64862;54.398;10.126;2023-06-22T11:18:52;21.50;56.40
16968;DHT22;64862;54.398;10.126;2023-06-22T11:28:54;21.50;56.10
16968;DHT22;64862;54.398;10.126;2023-06-22T11:38:57;21.60;54.90
16968;DHT22;64862;54.398;10.126;2023-06-22T11:48:59;21.60;54.10
16968;DHT22;64862;54.398;10.126;2023-06-22T11:59:03;21.60;54.00
16968;DHT22;64862;54.398;10.126;2023-06-22T12:09:05;21.60;54.00
16968;DHT22;64862;54.398;10.126;2023-06-22T12:19:11;21.70;53.20
16968;DHT22;64862;54.398;10.126;2023-06-22T12:29:14;21.70;50.60
16968;DHT22;64862;54.398;10.126;2023-06-22T12:39:18;21.70;48.80
16968;DHT22;64862;54.398;10.126;2023-06-22T12:49:20;21.70;47.30
16968;DHT22;64862;54.398;10.126;2023-06-22T12:59:23;21.80;48.40
16968;DHT22;64862;54.398;10.126;2023-06-22T13:09:29;21.90;48.30
16968;DHT22;64862;54.398;10.126;2023-06-22T13:19:32;22.00;49.80
16968;DHT22;64862;54.398;10.126;2023-06-22T13:29:34;21.90;48.80
16968;DHT22;64862;54.398;10.126;2023-06-22T13:39:38;21.90;49.50
16968;DHT22;64862;54.398;10.126;2023-06-22T13:49:40;21.90;48.10
16968;DHT22;64862;54.398;10.126;2023-06-22T13:59:44;22.00;48.50
16968;DHT22;64862;54.398;10.126;2023-06-22T14:09:46;22.10;48.30
16968;DHT22;64862;54.398;10.126;2023-06-22T14:19:50;22.10;47.10
16968;DHT22;64862;54.398;10.126;2023-06-22T14:29:53;22.10;46.10
16968;DHT22;64862;54.398;10.126;2023-06-22T14:39:56;22.10;46.30
16968;DHT22;64862;54.398;10.126;2023-06-22T14:50:01;22.30;46.50
16968;DHT22;64862;54.398;10.126;2023-06-22T15:00:06;22.20;46.90
16968;DHT22;64862;54.398;10.126;2023-06-22T15:10:09;22.40;47.00
16968;DHT22;64862;54.398;10.126;2023-06-22T15:20:14;22.50;46.40
16968;DHT22;64862;54.398;10.126;2023-06-22T15:30:16;22.50;47.10
16968;DHT22;64862;54.398;10.126;2023-06-22T15:40:20;22.70;45.80
16968;DHT22;64862;54.398;10.126;2023-06-22T15:50:22;22.90;46.90
16968;DHT22;64862;54.398;10.126;2023-06-22T16:00:26;22.80;48.80
16968;DHT22;64862;54.398;10.126;2023-06-22T16:10:28;22.80;47.80
16968;DHT22;64862;54.398;10.126;2023-06-22T16:20:32;23.00;47.10
16968;DHT22;64862;54.398;10.126;2023-06-22T16:30:34;23.10;46.90
16968;DHT22;64862;54.398;10.126;2023-06-22T16:40:38;22.90;47.90
16968;DHT22;64862;54.398;10.126;2023-06-22T16:50:40;23.10;46.40
16968;DHT22;64862;54.398;10.126;2023-06-22T17:00:45;22.80;46.90
16968;DHT22;64862;54.398;10.126;2023-06-22T17:10:47;22.70;47.40
16968;DHT22;64862;54.398;10.126;2023-06-22T17:20:51;22.50;47.90
16968;DHT22;64862;54.398;10.126;2023-06-22T17:31:08;22.40;47.60
16968;DHT22;64862;54.398;10.126;2023-06-22T17:41:12;22.20;47.80
16968;DHT22;64862;54.398;10.126;2023-06-22T17:51:15;22.10;47.70
16968;DHT22;64862;54.398;10.126;2023-06-22T18:01:28;22.00;48.20
16968;DHT22;64862;54.398;10.126;2023-06-22T18:11:35;21.90;48.80
16968;DHT22;64862;54.398;10.126;2023-06-22T18:21:41;21.80;49.00
16968;DHT22;64862;54.398;10.126;2023-06-22T18:31:43;21.70;48.90
16968;DHT22;64862;54.398;10.126;2023-06-22T18:41:51;21.50;49.60
16968;DHT22;64862;54.398;10.126;2023-06-22T18:51:55;21.50;50.10
16968;DHT22;64862;54.398;10.126;2023-06-22T19:02:01;21.30;50.90
16968;DHT22;64862;54.398;10.126;2023-06-22T19:12:20;21.30;51.10
16968;DHT22;64862;54.398;10.126;2023-06-22T19:22:43;21.30;51.80
16968;DHT22;64862;54.398;10.126;2023-06-22T19:32:46;21.20;52.10
16968;DHT22;64862;54.398;10.126;2023-06-22T19:42:53;21.10;53.10
16968;DHT22;64862;54.398;10.126;2023-06-22T19:52:55;21.00;54.10
16968;DHT22;64862;54.398;10.126;2023-06-22T20:02:59;21.00;56.70
16968;DHT22;64862;54.398;10.126;2023-06-22T20:13:01;20.90;59.50
16968;DHT22;64862;54.398;10.126;2023-06-22T20:23:17;20.80;61.70
16968;DHT22;64862;54.398;10.126;2023-06-22T20:33:21;20.70;62.70
16968;DHT22;64862;54.398;10.126;2023-06-22T20:43:25;20.60;60.90
16968;DHT22;64862;54.398;10.126;2023-06-22T20:53:27;20.70;60.20
16968;DHT22;64862;54.398;10.126;2023-06-22T21:03:31;20.70;58.60
16968;DHT22;64862;54.398;10.126;2023-06-22T21:13:33;20.70;57.80
16968;DHT22;64862;54.398;10.126;2023-06-22T21:23:38;20.60;58.20
16968;DHT22;64862;54.398;10.126;2023-06-22T21:33:40;20.60;60.60
16968;DHT22;64862;54.398;10.126;2023-06-22T21:43:43;20.60;63.10
16968;DHT22;64862;54.398;10.126;2023-06-22T21:53:46;20.50;63.50
16968;DHT22;64862;54.398;10.126;2023-06-22T22:03:49;20.50;64.40
16968;DHT22;64862;54.398;10.126;2023-06-22T22:13:51;20.50;64.30
16968;DHT22;64862;54.398;10.126;2023-06-22T22:23:55;20.50;64.00
16968;DHT22;64862;54.398;10.126;2023-06-22T22:33:58;20.50;63.50
16968;DHT22;64862;54.398;10.126;2023-06-22T22:44:01;20.50;64.60
16968;DHT22;64862;54.398;10.126;2023-06-22T22:54:03;20.50;64.70
16968;DHT22;64862;54.398;10.126;2023-06-22T23:04:09;20.50;64.10
16968;DHT22;64862;54.398;10.126;2023-06-22T23:14:11;20.50;65.10
16968;DHT22;64862;54.398;10.126;2023-06-22T23:24:17;20.50;64.30
16968;DHT22;64862;54.398;10.126;2023-06-22T23:34:20;20.50;65.60
16968;DHT22;64862;54.398;10.126;2023-06-22T23:44:23;20.40;67.00
16968;DHT22;64862;54.398;10.126;2023-06-22T23:54:27;20.40;67.20
